createdAt,value
2018-05-31T00:00:17.426Z,94875.23
2018-05-31T00:02:46.452Z,94874.87
2018-05-31T00:05:14.729Z,94870.41
2018-05-31T00:07:43.002Z,94864.22
2018-05-31T00:10:11.276Z,94863.21
2018-05-31T00:12:39.526Z,94863.91
2018-05-31T00:15:08.572Z,94867.95
2018-05-31T00:17:36.836Z,94868.44
2018-05-31T00:20:05.103Z,94868.27
2018-05-31T00:22:34.124Z,94875.92
2018-05-31T00:25:02.401Z,94884.44
2018-05-31T00:27:30.667Z,94872.78
2018-05-31T00:29:59.771Z,94876.56
2018-05-31T00:32:28.027Z,94871.09
2018-05-31T00:34:57.066Z,94870.60
2018-05-31T00:37:25.320Z,94863.89
2018-05-31T00:39:54.355Z,94859.80
2018-05-31T00:42:22.710Z,94866.67
2018-05-31T00:44:50.966Z,94865.58
2018-05-31T00:47:20.008Z,94868.75
2018-05-31T00:49:48.267Z,94877.15
2018-05-31T00:52:16.543Z,94884.11
2018-05-31T00:54:45.564Z,94875.48
2018-05-31T00:57:13.827Z,94880.59
2018-05-31T00:59:43.033Z,94877.20
2018-05-31T01:02:11.300Z,94873.59
2018-05-31T01:04:40.327Z,94871.17
2018-05-31T01:07:08.593Z,94874.30
2018-05-31T01:09:36.844Z,94877.44
2018-05-31T01:12:05.890Z,94870.59
2018-05-31T01:14:34.144Z,94862.53
2018-05-31T01:17:02.426Z,94863.11
2018-05-31T01:19:30.698Z,94856.50
2018-05-31T01:21:59.746Z,94853.56
2018-05-31T01:24:28.015Z,94845.95
2018-05-31T01:26:56.290Z,94840.79
2018-05-31T01:29:24.564Z,94841.70
2018-05-31T01:31:52.832Z,94844.84
2018-05-31T01:34:21.099Z,94836.82
2018-05-31T01:36:50.147Z,94840.88
2018-05-31T01:39:18.822Z,94849.22
2018-05-31T01:41:47.093Z,94838.96
2018-05-31T01:44:15.346Z,94837.45
2018-05-31T01:46:44.677Z,94842.64
2018-05-31T01:49:12.947Z,94848.41
2018-05-31T01:51:41.211Z,94855.42
2018-05-31T01:54:10.324Z,94854.47
2018-05-31T01:56:38.592Z,94857.53
2018-05-31T01:59:07.624Z,94859.66
2018-05-31T02:01:35.878Z,94866.52
2018-05-31T02:04:04.912Z,94872.80
2018-05-31T02:06:33.170Z,94869.56
2018-05-31T02:09:01.442Z,94869.36
2018-05-31T02:11:29.730Z,94868.05
2018-05-31T02:13:58.855Z,94842.84
2018-05-31T02:16:27.116Z,94853.31
2018-05-31T02:18:55.379Z,94842.84
2018-05-31T02:21:23.651Z,94846.08
2018-05-31T02:23:52.683Z,94848.01
2018-05-31T02:26:20.951Z,94845.37
2018-05-31T02:28:49.220Z,94855.03
2018-05-31T02:31:18.246Z,94851.08
2018-05-31T02:33:46.512Z,94846.80
2018-05-31T02:36:14.771Z,94844.12
2018-05-31T02:38:43.815Z,94841.72
2018-05-31T02:41:12.076Z,94840.92
2018-05-31T02:43:40.338Z,94845.69
2018-05-31T02:46:08.687Z,94849.84
2018-05-31T02:48:37.719Z,94847.71
2018-05-31T02:51:05.974Z,94858.66
2018-05-31T02:53:35.022Z,94852.45
2018-05-31T02:56:03.275Z,94847.27
2018-05-31T02:58:31.542Z,94846.24
2018-05-31T03:01:00.574Z,94850.81
2018-05-31T03:03:28.834Z,94848.47
2018-05-31T03:05:57.094Z,94841.47
2018-05-31T03:08:26.132Z,94836.69
2018-05-31T03:10:54.485Z,94834.58
2018-05-31T03:13:23.595Z,94834.19
2018-05-31T03:15:51.850Z,94837.94
2018-05-31T03:18:21.587Z,94838.55
2018-05-31T03:20:50.690Z,94837.61
2018-05-31T03:23:18.968Z,94840.31
2018-05-31T03:25:47.235Z,94846.50
2018-05-31T03:28:16.264Z,94842.74
2018-05-31T03:30:44.526Z,94837.23
2018-05-31T03:33:14.435Z,94838.43
2018-05-31T03:35:43.477Z,94838.44
2018-05-31T03:38:11.740Z,94836.23
2018-05-31T03:40:41.515Z,94839.45
2018-05-31T03:43:09.766Z,94839.81
2018-05-31T03:45:38.028Z,94846.20
2018-05-31T03:48:06.291Z,94842.54
2018-05-31T03:50:34.544Z,94840.58
2018-05-31T03:53:03.580Z,94831.63
2018-05-31T03:55:31.862Z,94834.37
2018-05-31T03:58:00.120Z,94832.98
2018-05-31T04:00:28.405Z,94836.34
2018-05-31T04:02:56.672Z,94833.95
2018-05-31T04:05:25.699Z,94820.63
2018-05-31T04:07:53.956Z,94819.62
2018-05-31T04:10:22.995Z,94816.92
2018-05-31T04:12:52.865Z,94821.58
2018-05-31T04:15:21.896Z,94821.24
2018-05-31T04:17:50.155Z,94823.17
2018-05-31T04:20:18.422Z,94821.31
2018-05-31T04:22:47.451Z,94817.61
2018-05-31T04:25:15.721Z,94807.19
2018-05-31T04:27:44.011Z,94798.90
2018-05-31T04:30:12.281Z,94799.73
2018-05-31T04:32:41.267Z,94806.82
2018-05-31T04:35:09.530Z,94805.11
2018-05-31T04:37:38.563Z,94806.62
2018-05-31T04:40:06.835Z,94813.67
2018-05-31T04:42:35.108Z,94812.78
2018-05-31T04:45:04.120Z,94815.17
2018-05-31T04:47:32.502Z,94808.84
2018-05-31T04:50:00.766Z,94808.43
2018-05-31T04:52:29.793Z,94808.83
2018-05-31T04:54:58.096Z,94818.27
2018-05-31T04:57:26.347Z,94812.62
2018-05-31T04:59:54.598Z,94810.68
2018-05-31T05:02:23.626Z,94799.88
2018-05-31T05:04:53.660Z,94798.38
2018-05-31T05:07:21.927Z,94795.47
2018-05-31T05:09:50.179Z,94795.56
2018-05-31T05:12:19.288Z,94799.59
2018-05-31T05:14:47.543Z,94809.16
2018-05-31T05:17:16.588Z,94800.53
2018-05-31T05:19:44.837Z,94805.02
2018-05-31T05:22:13.889Z,94801.34
2018-05-31T05:24:42.226Z,94802.50
2018-05-31T05:27:10.506Z,94815.98
2018-05-31T05:29:38.762Z,94819.21
2018-05-31T05:32:07.800Z,94816.28
2018-05-31T05:34:36.063Z,94825.20
2018-05-31T05:37:05.126Z,94833.95
2018-05-31T05:39:34.158Z,94827.86
2018-05-31T05:42:02.423Z,94826.84
2018-05-31T05:44:31.456Z,94829.84
2018-05-31T05:46:59.727Z,94840.90
2018-05-31T05:49:28.004Z,94843.92
2018-05-31T05:51:56.283Z,94847.73
2018-05-31T05:54:24.564Z,94848.98
2018-05-31T05:56:52.834Z,94846.64
2018-05-31T05:59:21.851Z,94851.91
2018-05-31T06:01:50.179Z,94847.77
2018-05-31T06:04:19.194Z,94851.45
2018-05-31T06:06:47.402Z,94856.18
2018-05-31T06:09:17.547Z,94853.44
2018-05-31T06:11:45.819Z,94846.45
2018-05-31T06:14:14.073Z,94859.33
2018-05-31T06:16:43.108Z,94861.95
2018-05-31T06:19:11.369Z,94863.95
2018-05-31T06:21:39.639Z,94860.22
2018-05-31T06:24:08.658Z,94861.33
2018-05-31T06:26:36.923Z,94860.19
2018-05-31T06:29:05.180Z,94862.39
2018-05-31T06:31:34.220Z,94866.16
2018-05-31T06:34:02.463Z,94870.69
2018-05-31T06:36:31.495Z,94867.69
2018-05-31T06:38:59.746Z,94866.48
2018-05-31T06:41:28.641Z,94863.41
2018-05-31T06:43:57.660Z,94869.53
2018-05-31T06:46:25.931Z,94873.19
2018-05-31T06:48:54.184Z,94866.60
2018-05-31T06:51:23.211Z,94862.98
2018-05-31T06:53:51.505Z,94857.83
2018-05-31T06:56:19.759Z,94860.27
2018-05-31T06:58:48.784Z,94858.15
2018-05-31T07:01:17.046Z,94856.17
2018-05-31T07:03:45.331Z,94861.86
2018-05-31T07:06:13.582Z,94859.65
2018-05-31T07:08:42.621Z,94855.02
2018-05-31T07:11:10.899Z,94858.31
2018-05-31T07:13:39.156Z,94858.27
2018-05-31T07:16:08.177Z,94857.38
2018-05-31T07:18:36.450Z,94857.67
2018-05-31T07:21:04.702Z,94851.48
2018-05-31T07:23:33.743Z,94855.77
2018-05-31T07:26:01.989Z,94852.82
2018-05-31T07:28:31.013Z,94854.82
2018-05-31T07:30:59.274Z,94849.03
2018-05-31T07:33:28.315Z,94854.40
2018-05-31T07:35:56.658Z,94846.85
2018-05-31T07:38:25.683Z,94854.41
2018-05-31T07:40:53.943Z,94856.84
2018-05-31T07:43:22.207Z,94858.86
2018-05-31T07:45:52.371Z,94850.69
2018-05-31T07:48:20.636Z,94850.76
2018-05-31T07:50:48.912Z,94843.30
2018-05-31T07:53:17.189Z,94849.02
2018-05-31T07:55:46.213Z,94845.12
2018-05-31T07:58:14.514Z,94846.06
2018-05-31T08:00:42.742Z,94845.66
2018-05-31T08:03:11.018Z,94843.11
2018-05-31T08:05:40.058Z,94840.02
2018-05-31T08:08:08.306Z,94839.44
2018-05-31T08:10:37.621Z,94840.49
2018-05-31T08:13:05.883Z,94842.39
2018-05-31T08:15:34.903Z,94836.56
2018-05-31T08:18:03.771Z,94837.59
2018-05-31T08:20:32.804Z,94839.28
2018-05-31T08:23:01.055Z,94836.50
2018-05-31T08:25:30.070Z,94843.35
2018-05-31T08:27:58.331Z,94845.08
2018-05-31T08:30:26.588Z,94838.75
2018-05-31T08:32:55.627Z,94839.15
2018-05-31T08:35:23.883Z,94833.77
2018-05-31T08:37:52.918Z,94838.41
2018-05-31T08:40:21.171Z,94839.23
2018-05-31T08:42:49.436Z,94836.67
2018-05-31T08:45:18.454Z,94834.63
2018-05-31T08:47:46.715Z,94841.72
2018-05-31T08:50:16.978Z,94839.37
2018-05-31T08:52:45.247Z,94845.49
2018-05-31T08:55:13.506Z,94843.83
2018-05-31T08:57:42.547Z,94844.67
2018-05-31T09:00:10.794Z,94838.03
2018-05-31T09:02:39.063Z,94841.03
2018-05-31T09:05:08.095Z,94842.97
2018-05-31T09:07:36.351Z,94843.16
2018-05-31T09:10:04.628Z,94835.83
2018-05-31T09:12:33.654Z,94837.85
2018-05-31T09:15:01.924Z,94833.56
2018-05-31T09:17:30.186Z,94828.85
2018-05-31T09:19:59.207Z,94830.22
2018-05-31T09:22:27.467Z,94824.27
2018-05-31T09:24:55.761Z,94827.83
2018-05-31T09:27:24.015Z,94831.23
2018-05-31T09:29:53.040Z,94823.68
2018-05-31T09:32:21.291Z,94823.80
2018-05-31T09:34:50.328Z,94828.75
2018-05-31T09:37:18.591Z,94818.07
2018-05-31T09:39:46.867Z,94821.05
2018-05-31T09:42:15.888Z,94820.73
2018-05-31T09:44:44.163Z,94817.14
2018-05-31T09:47:12.419Z,94815.22
2018-05-31T09:49:41.444Z,94807.22
2018-05-31T09:52:09.703Z,94812.56
2018-05-31T09:54:37.958Z,94805.68
2018-05-31T09:57:06.994Z,94808.63
2018-05-31T09:59:35.267Z,94809.77
2018-05-31T10:02:03.560Z,94805.84
2018-05-31T10:04:32.071Z,94799.66
2018-05-31T10:07:00.370Z,94805.58
2018-05-31T10:09:28.612Z,94794.20
2018-05-31T10:11:56.877Z,94795.27
2018-05-31T10:14:26.379Z,94790.23
2018-05-31T10:16:54.638Z,94798.92
2018-05-31T10:19:23.663Z,94791.02
2018-05-31T10:21:51.910Z,94793.38
2018-05-31T10:24:20.952Z,94800.05
2018-05-31T10:26:49.910Z,94793.55
2018-05-31T10:29:18.946Z,94787.63
2018-05-31T10:31:47.215Z,94799.84
2018-05-31T10:34:15.483Z,94798.98
2018-05-31T10:36:44.512Z,94797.59
2018-05-31T10:39:12.781Z,94805.27
2018-05-31T10:41:41.036Z,94790.03
2018-05-31T10:44:10.148Z,94786.22
2018-05-31T10:46:39.008Z,94797.02
2018-05-31T10:49:07.972Z,94795.63
2018-05-31T10:51:36.332Z,94797.23
2018-05-31T10:54:04.583Z,94800.06
2018-05-31T10:56:33.617Z,94789.98
2018-05-31T10:59:01.880Z,94784.12
2018-05-31T11:01:30.993Z,94783.08
2018-05-31T11:03:59.263Z,94789.36
2018-05-31T11:06:27.535Z,94787.86
2018-05-31T11:08:56.559Z,94790.38
2018-05-31T11:11:24.831Z,94788.95
2018-05-31T11:13:53.074Z,94785.28
2018-05-31T11:16:22.110Z,94790.72
2018-05-31T11:18:50.378Z,94778.68
2018-05-31T11:21:18.652Z,94770.77
2018-05-31T11:23:47.667Z,94781.61
2018-05-31T11:26:15.939Z,94782.38
2018-05-31T11:28:44.193Z,94782.42
2018-05-31T11:31:13.241Z,94769.52
2018-05-31T11:33:41.499Z,94767.70
2018-05-31T11:36:09.768Z,94776.28
2018-05-31T11:38:38.880Z,94764.36
2018-05-31T11:41:07.155Z,94764.55
2018-05-31T11:43:36.181Z,94756.88
2018-05-31T11:46:04.450Z,94758.73
2018-05-31T11:48:32.717Z,94759.05
2018-05-31T11:51:00.994Z,94749.75
2018-05-31T11:53:30.015Z,94749.00
2018-05-31T11:55:58.284Z,94747.34
2018-05-31T11:58:26.549Z,94741.13
2018-05-31T12:00:55.583Z,94741.77
2018-05-31T12:03:23.831Z,94738.16
2018-05-31T12:05:52.129Z,94737.55
2018-05-31T12:08:20.427Z,94737.16
2018-05-31T12:10:49.472Z,94742.91
2018-05-31T12:13:17.676Z,94737.90
2018-05-31T12:15:45.951Z,94736.03
2018-05-31T12:18:14.967Z,94737.69
2018-05-31T12:20:43.226Z,94735.34
2018-05-31T12:23:11.500Z,94729.95
2018-05-31T12:25:40.616Z,94731.44
2018-05-31T12:28:08.868Z,94728.66
2018-05-31T12:30:38.603Z,94722.01
2018-05-31T12:33:06.859Z,94715.44
2018-05-31T12:35:35.898Z,94713.70
2018-05-31T12:38:04.181Z,94719.30
2018-05-31T12:40:32.433Z,94707.91
2018-05-31T12:43:01.464Z,94713.66
2018-05-31T12:45:29.723Z,94708.25
2018-05-31T12:47:58.750Z,94717.94
2018-05-31T12:50:31.814Z,94724.80
2018-05-31T12:53:00.092Z,94724.69
2018-05-31T12:55:28.344Z,94717.50
2018-05-31T12:57:57.382Z,94714.15
2018-05-31T13:00:25.646Z,94710.53
2018-05-31T13:02:53.931Z,94708.75
2018-05-31T13:05:22.615Z,94712.58
2018-05-31T13:07:51.655Z,94709.23
2018-05-31T13:10:19.999Z,94709.55
2018-05-31T13:12:48.263Z,94696.95
2018-05-31T13:15:18.538Z,94695.59
2018-05-31T13:17:46.803Z,94697.03
2018-05-31T13:20:15.065Z,94695.67
2018-05-31T13:22:43.346Z,94682.35
2018-05-31T13:25:12.425Z,94688.59
2018-05-31T13:27:41.178Z,94676.00
2018-05-31T13:30:09.428Z,94685.81
2018-05-31T13:32:37.698Z,94690.16
2018-05-31T13:35:05.958Z,94680.63
2018-05-31T13:37:34.990Z,94671.63
2018-05-31T13:40:03.253Z,94661.88
2018-05-31T13:42:31.531Z,94661.33
2018-05-31T13:45:00.569Z,94663.13
2018-05-31T13:47:28.829Z,94669.86
2018-05-31T13:49:57.085Z,94672.48
2018-05-31T13:52:26.118Z,94671.94
2018-05-31T13:54:54.375Z,94675.61
2018-05-31T13:57:22.645Z,94680.13
2018-05-31T13:59:51.674Z,94685.03
2018-05-31T14:02:19.947Z,94684.72
2018-05-31T14:04:48.198Z,94684.91
2018-05-31T14:07:17.311Z,94684.62
2018-05-31T14:09:45.567Z,94686.97
2018-05-31T14:12:14.599Z,94693.14
2018-05-31T14:14:42.871Z,94687.08
2018-05-31T14:17:11.908Z,94687.23
2018-05-31T14:19:40.171Z,94680.48
2018-05-31T14:22:08.440Z,94680.39
2018-05-31T14:24:36.699Z,94679.69
2018-05-31T14:27:05.726Z,94683.23
2018-05-31T14:29:34.706Z,94686.55
2018-05-31T14:32:02.983Z,94685.11
2018-05-31T14:34:32.011Z,94689.58
2018-05-31T14:37:00.279Z,94686.95
2018-05-31T14:39:28.527Z,94693.83
2018-05-31T14:41:57.556Z,94698.69
2018-05-31T14:44:25.823Z,94702.83
2018-05-31T14:46:54.079Z,94694.23
2018-05-31T14:49:23.114Z,94694.25
2018-05-31T14:51:51.379Z,94688.80
2018-05-31T14:54:19.652Z,94682.58
2018-05-31T14:56:48.725Z,94673.52
2018-05-31T14:59:16.954Z,94682.61
2018-05-31T15:01:45.236Z,94679.19
2018-05-31T15:04:13.756Z,94688.92
2018-05-31T15:06:42.016Z,94690.42
2018-05-31T15:09:10.271Z,94699.75
2018-05-31T15:11:38.547Z,94701.44
2018-05-31T15:14:06.821Z,94689.46
2018-05-31T15:16:35.850Z,94690.88
2018-05-31T15:19:04.118Z,94683.41
2018-05-31T15:21:32.375Z,94679.22
2018-05-31T15:24:01.419Z,94677.47
2018-05-31T15:26:29.680Z,94675.88
2018-05-31T15:28:57.947Z,94678.20
2018-05-31T15:31:27.860Z,94675.94
2018-05-31T15:33:56.136Z,94681.89
2018-05-31T15:36:25.157Z,94662.38
2018-05-31T15:38:53.419Z,94670.59
2018-05-31T15:41:22.448Z,94677.49
2018-05-31T15:43:50.724Z,94682.61
2018-05-31T15:46:18.979Z,94680.50
2018-05-31T15:48:48.012Z,94682.09
2018-05-31T15:51:16.273Z,94687.85
2018-05-31T15:53:44.544Z,94681.83
2018-05-31T15:56:12.793Z,94681.56
2018-05-31T15:58:41.836Z,94672.73
2018-05-31T16:01:10.087Z,94672.87
2018-05-31T16:03:39.123Z,94656.75
2018-05-31T16:06:07.405Z,94645.47
2018-05-31T16:08:35.715Z,94641.19
2018-05-31T16:11:04.688Z,94616.45
2018-05-31T16:13:32.955Z,94638.75
2018-05-31T16:16:01.217Z,94642.23
2018-05-31T16:18:29.488Z,94649.77
2018-05-31T16:20:58.507Z,94664.64
2018-05-31T16:23:26.789Z,94700.69
2018-05-31T16:25:55.043Z,94734.25
2018-05-31T16:28:24.093Z,94739.78
2018-05-31T16:30:52.331Z,94746.14
2018-05-31T16:33:21.368Z,94736.91
2018-05-31T16:35:49.714Z,94719.13
2018-05-31T16:38:17.979Z,94709.75
2018-05-31T16:40:47.052Z,94710.43
2018-05-31T16:43:15.266Z,94706.06
2018-05-31T16:45:43.539Z,94715.16
2018-05-31T16:48:12.615Z,94717.19
2018-05-31T16:50:40.945Z,94709.27
2018-05-31T16:53:09.208Z,94722.48
2018-05-31T16:55:38.839Z,94731.38
2018-05-31T16:58:07.105Z,94743.69
2018-05-31T17:00:35.383Z,94741.90
2018-05-31T17:03:03.638Z,94732.91
2018-05-31T17:05:32.679Z,94730.19
2018-05-31T17:08:00.940Z,94731.94
2018-05-31T17:10:29.967Z,94735.00
2018-05-31T17:12:58.240Z,94737.36
2018-05-31T17:15:26.498Z,94743.34
2018-05-31T17:17:54.758Z,94756.75
2018-05-31T17:20:23.793Z,94759.88
2018-05-31T17:22:52.051Z,94762.06
2018-05-31T17:25:21.088Z,94795.59
2018-05-31T17:27:50.359Z,94813.73
2018-05-31T17:30:18.635Z,94819.80
2018-05-31T17:32:47.678Z,94830.23
2018-05-31T17:35:15.939Z,94840.89
2018-05-31T17:37:44.198Z,94843.28
2018-05-31T17:40:12.474Z,94839.25
2018-05-31T17:42:41.488Z,94835.55
2018-05-31T17:45:09.755Z,94844.42
2018-05-31T17:47:38.852Z,94850.27
2018-05-31T17:50:07.883Z,94857.97
2018-05-31T17:52:36.140Z,94865.80
2018-05-31T17:55:04.420Z,94870.41
2018-05-31T17:57:32.702Z,94886.00
2018-05-31T18:00:01.028Z,94895.25
2018-05-31T18:02:29.293Z,94900.78
2018-05-31T18:04:57.639Z,94902.36
2018-05-31T18:07:25.900Z,94921.31
2018-05-31T18:09:54.944Z,94924.93
2018-05-31T18:12:23.199Z,94921.14
2018-05-31T18:14:51.477Z,94926.76
2018-05-31T18:17:20.502Z,94916.27
2018-05-31T18:19:50.299Z,94914.31
2018-05-31T18:22:18.594Z,94914.25
2018-05-31T18:24:46.846Z,94921.86
2018-05-31T18:27:15.882Z,94917.94
2018-05-31T18:29:44.132Z,94916.89
2018-05-31T18:32:12.418Z,94928.00
2018-05-31T18:34:40.730Z,94933.25
2018-05-31T18:37:09.719Z,94933.02
2018-05-31T18:39:37.979Z,94941.47
2018-05-31T18:42:06.247Z,94944.72
2018-05-31T18:44:35.291Z,94947.50
2018-05-31T18:47:03.731Z,94936.16
2018-05-31T18:49:32.843Z,94934.38
2018-05-31T18:52:01.115Z,94933.33
2018-05-31T18:54:29.369Z,94939.48
2018-05-31T18:56:58.418Z,94935.97
2018-05-31T18:59:26.739Z,94925.61
2018-05-31T19:01:54.938Z,94939.87
2018-05-31T19:04:23.966Z,94934.41
2018-05-31T19:06:52.255Z,94936.48
2018-05-31T19:09:26.838Z,94920.06
2018-05-31T19:11:55.877Z,94921.44
2018-05-31T19:14:24.136Z,94927.77
2018-05-31T19:16:52.407Z,94913.98
2018-05-31T19:19:26.956Z,94912.34
2018-05-31T19:21:55.273Z,94901.47
2018-05-31T19:24:29.904Z,94899.56
2018-05-31T19:26:58.177Z,94890.56
2018-05-31T19:29:26.432Z,94879.48
2018-05-31T19:31:54.686Z,94870.00
2018-05-31T19:34:22.943Z,94866.07
2018-05-31T19:36:57.429Z,94860.77
2018-05-31T19:39:25.698Z,94850.66
2018-05-31T19:41:53.977Z,94848.26
2018-05-31T19:44:27.708Z,94836.14
2018-05-31T19:46:55.970Z,94831.83
2018-05-31T19:49:24.236Z,94827.59
2018-05-31T19:51:57.995Z,94827.64
2018-05-31T19:54:27.022Z,94820.61
2018-05-31T19:56:55.296Z,94822.48
2018-05-31T19:59:29.837Z,94818.36
2018-05-31T20:02:03.671Z,94819.82
2018-05-31T20:04:31.927Z,94826.23
2018-05-31T20:07:00.188Z,94831.92
2018-05-31T20:09:29.216Z,94842.73
2018-05-31T20:11:57.475Z,94838.78
2018-05-31T20:14:25.740Z,94842.44
2018-05-31T20:16:54.764Z,94851.47
2018-05-31T20:19:23.018Z,94852.16
2018-05-31T20:21:52.041Z,94853.98
2018-05-31T20:24:20.307Z,94858.38
2018-05-31T20:26:49.330Z,94856.03
2018-05-31T20:29:17.599Z,94846.27
2018-05-31T20:31:45.856Z,94848.61
2018-05-31T20:34:14.964Z,94845.76
2018-05-31T20:36:43.218Z,94839.47
2018-05-31T20:39:12.244Z,94846.25
2018-05-31T20:41:40.647Z,94841.13
2018-05-31T20:44:08.907Z,94848.50
2018-05-31T20:46:37.162Z,94855.55
2018-05-31T20:49:06.200Z,94863.42
2018-05-31T20:51:34.448Z,94862.51
2018-05-31T20:54:03.578Z,94857.06
2018-05-31T20:56:31.818Z,94848.34
2018-05-31T20:59:00.853Z,94849.34
2018-05-31T21:01:29.121Z,94848.20
2018-05-31T21:03:58.219Z,94850.62
2018-05-31T21:06:27.242Z,94849.95
2018-05-31T21:08:55.516Z,94856.62
2018-05-31T21:11:23.779Z,94858.69
2018-05-31T21:13:52.619Z,94854.73
2018-05-31T21:16:20.954Z,94865.00
2018-05-31T21:18:49.225Z,94867.64
2018-05-31T21:21:18.253Z,94873.75
2018-05-31T21:23:46.520Z,94877.87
2018-05-31T21:26:14.771Z,94884.33
2018-05-31T21:28:43.809Z,94897.97
2018-05-31T21:31:12.071Z,94897.19
2018-05-31T21:33:41.111Z,94910.13
2018-05-31T21:36:09.368Z,94924.18
2018-05-31T21:38:37.646Z,94939.34
2018-05-31T21:41:05.923Z,94941.80
2018-05-31T21:43:34.924Z,94955.35
2018-05-31T21:46:04.851Z,94967.55
2018-05-31T21:48:33.107Z,94954.94
2018-05-31T21:51:02.148Z,94970.20
2018-05-31T21:53:30.918Z,94970.19
2018-05-31T21:55:59.179Z,94971.42
2018-05-31T21:58:27.452Z,94967.64
2018-05-31T22:00:56.504Z,94964.75
2018-05-31T22:03:24.764Z,94969.67
2018-05-31T22:05:53.029Z,94965.30
2018-05-31T22:08:21.278Z,94966.61
2018-05-31T22:10:50.314Z,94971.73
2018-05-31T22:13:18.559Z,94969.78
2018-05-31T22:15:47.600Z,94970.50
2018-05-31T22:18:15.874Z,94975.34
2018-05-31T22:20:44.132Z,94971.70
2018-05-31T22:23:13.904Z,94963.46
2018-05-31T22:25:42.159Z,94961.31
2018-05-31T22:28:10.428Z,94965.88
2018-05-31T22:30:38.691Z,94963.63
2018-05-31T22:33:06.955Z,94958.09
2018-05-31T22:35:35.979Z,94970.52
2018-05-31T22:38:04.234Z,94966.21
2018-05-31T22:40:33.267Z,94959.61
2018-05-31T22:43:01.524Z,94956.20
2018-05-31T22:45:30.572Z,94951.02
2018-05-31T22:47:58.839Z,94953.54
2018-05-31T22:50:27.755Z,94948.95
2018-05-31T22:52:56.093Z,94950.38
2018-05-31T22:55:24.359Z,94958.64
2018-05-31T22:57:53.395Z,94955.17
2018-05-31T23:00:21.652Z,94952.70
2018-05-31T23:02:49.911Z,94959.16
2018-05-31T23:05:18.936Z,94954.80
2018-05-31T23:07:47.195Z,94961.02
2018-05-31T23:10:16.269Z,94968.02
2018-05-31T23:12:46.036Z,94978.25
2018-05-31T23:15:14.291Z,94986.07
2018-05-31T23:17:43.318Z,94986.69
2018-05-31T23:20:11.571Z,94989.02
2018-05-31T23:22:39.845Z,94994.15
2018-05-31T23:25:08.875Z,94998.98
2018-05-31T23:27:37.127Z,95002.78
2018-05-31T23:30:06.151Z,95008.90
2018-05-31T23:32:34.415Z,95022.07
2018-05-31T23:35:02.674Z,95026.98
2018-05-31T23:37:31.711Z,95034.20
2018-05-31T23:39:59.970Z,95036.95
2018-05-31T23:42:28.235Z,95034.84
2018-05-31T23:44:57.259Z,95042.15
2018-05-31T23:47:25.515Z,95044.89
2018-05-31T23:49:54.547Z,95048.20
2018-05-31T23:52:22.817Z,95050.41
2018-05-31T23:54:51.071Z,95054.29
2018-05-31T23:57:20.107Z,95054.45
2018-05-31T23:59:48.360Z,95063.13
